createdAt,value
2023-03-19T00:00:27.998Z,-3.39
2023-03-19T00:02:55.362Z,-3.35
2023-03-19T00:05:22.623Z,-3.34
2023-03-19T00:07:49.567Z,-3.35
2023-03-19T00:10:16.585Z,-3.50
2023-03-19T00:12:43.517Z,-3.67
2023-03-19T00:15:14.332Z,-3.80
2023-03-19T00:17:44.456Z,-3.77
2023-03-19T00:20:12.249Z,-3.74
2023-03-19T00:22:40.073Z,-3.73
2023-03-19T00:25:10.379Z,-3.75
2023-03-19T00:27:38.203Z,-3.73
2023-03-19T00:30:06.744Z,-3.62
2023-03-19T00:32:34.349Z,-3.53
2023-03-19T00:35:01.510Z,-3.52
2023-03-19T00:37:29.421Z,-3.53
2023-03-19T00:39:56.477Z,-3.50
2023-03-19T00:42:23.621Z,-3.48
2023-03-19T00:44:50.742Z,-3.44
2023-03-19T00:47:17.795Z,-3.48
2023-03-19T00:49:44.852Z,-3.54
2023-03-19T00:52:11.857Z,-3.57
2023-03-19T00:54:40.090Z,-3.65
2023-03-19T00:57:08.070Z,-3.77
2023-03-19T00:59:35.102Z,-3.89
2023-03-19T01:02:03.003Z,-3.88
2023-03-19T01:04:30.011Z,-3.88
2023-03-19T01:06:58.417Z,-3.90
2023-03-19T01:09:26.702Z,-3.85
2023-03-19T01:11:56.968Z,-3.85
2023-03-19T01:14:23.960Z,-3.72
2023-03-19T01:16:51.188Z,-3.64
2023-03-19T01:19:18.213Z,-3.52
2023-03-19T01:21:46.626Z,-3.47
2023-03-19T01:24:17.847Z,-3.51
2023-03-19T01:26:47.479Z,-3.75
2023-03-19T01:29:30.472Z,-4.02
2023-03-19T01:32:00.734Z,-4.14
2023-03-19T01:34:53.980Z,-4.30
2023-03-19T01:37:21.299Z,-4.29
2023-03-19T01:39:48.776Z,-4.34
2023-03-19T01:42:15.785Z,-4.45
2023-03-19T01:45:03.376Z,-4.57
2023-03-19T01:47:41.080Z,-4.66
2023-03-19T01:50:25.045Z,-4.74
2023-03-19T01:53:13.460Z,-4.85
2023-03-19T01:55:49.981Z,-4.81
2023-03-19T01:58:33.075Z,-4.68
2023-03-19T02:01:20.703Z,-4.65
2023-03-19T02:03:51.578Z,-4.66
2023-03-19T02:06:24.182Z,-4.52
2023-03-19T02:08:51.574Z,-4.40
2023-03-19T02:11:18.588Z,-4.23
2023-03-19T02:13:46.230Z,-4.16
2023-03-19T02:16:13.552Z,-4.15
2023-03-19T02:18:41.681Z,-4.18
2023-03-19T02:21:13.724Z,-4.24
2023-03-19T02:24:02.452Z,-4.31
2023-03-19T02:26:44.440Z,-4.44
2023-03-19T02:29:11.468Z,-4.42
2023-03-19T02:31:38.643Z,-4.40
2023-03-19T02:34:07.727Z,-4.40
2023-03-19T02:36:42.442Z,-4.43
2023-03-19T02:39:14.194Z,-4.56
2023-03-19T02:41:41.606Z,-4.70
2023-03-19T02:44:08.725Z,-4.78
2023-03-19T02:46:35.816Z,-4.90
2023-03-19T02:49:02.840Z,-4.97
2023-03-19T02:51:29.989Z,-4.86
2023-03-19T02:53:56.973Z,-4.78
2023-03-19T02:56:23.818Z,-4.67
2023-03-19T02:58:50.817Z,-4.48
2023-03-19T03:01:19.223Z,-4.39
2023-03-19T03:03:46.617Z,-4.28
2023-03-19T03:06:14.261Z,-4.33
2023-03-19T03:08:41.372Z,-4.53
2023-03-19T03:11:08.475Z,-4.71
2023-03-19T03:13:35.949Z,-4.91
2023-03-19T03:16:03.120Z,-5.04
2023-03-19T03:18:30.252Z,-5.13
2023-03-19T03:20:57.393Z,-5.20
2023-03-19T03:23:24.396Z,-5.31
2023-03-19T03:25:52.168Z,-5.30
2023-03-19T03:28:19.274Z,-5.16
2023-03-19T03:30:47.139Z,-5.06
2023-03-19T03:33:14.175Z,-4.94
2023-03-19T03:35:41.176Z,-4.92
2023-03-19T03:38:08.234Z,-4.96
2023-03-19T03:40:36.819Z,-4.89
2023-03-19T03:43:03.939Z,-4.96
2023-03-19T03:45:33.506Z,-5.06
2023-03-19T03:48:00.848Z,-5.13
2023-03-19T03:50:27.744Z,-5.17
2023-03-19T03:52:57.742Z,-5.10
2023-03-19T03:55:24.727Z,-5.10
2023-03-19T03:57:52.157Z,-5.04
2023-03-19T04:00:19.635Z,-5.00
2023-03-19T04:02:47.107Z,-4.89
2023-03-19T04:05:16.465Z,-4.84
2023-03-19T04:07:44.019Z,-4.62
2023-03-19T04:10:11.845Z,-4.49
2023-03-19T04:12:40.022Z,-4.24
2023-03-19T04:15:07.973Z,-4.07
2023-03-19T04:17:36.911Z,-3.84
2023-03-19T04:20:04.745Z,-3.78
2023-03-19T04:22:31.799Z,-3.89
2023-03-19T04:24:59.736Z,-4.01
2023-03-19T04:27:27.683Z,-3.96
2023-03-19T04:29:54.875Z,-3.89
2023-03-19T04:32:21.911Z,-3.87
2023-03-19T04:34:49.233Z,-3.85
2023-03-19T04:37:16.186Z,-3.73
2023-03-19T04:39:49.239Z,-3.72
2023-03-19T04:42:16.271Z,-3.64
2023-03-19T04:45:07.006Z,-3.59
2023-03-19T04:47:34.492Z,-3.62
2023-03-19T04:50:01.582Z,-3.64
2023-03-19T04:52:31.236Z,-3.73
2023-03-19T04:54:58.186Z,-3.74
2023-03-19T04:57:25.184Z,-3.75
2023-03-19T04:59:54.375Z,-3.70
2023-03-19T05:02:22.515Z,-3.58
2023-03-19T05:04:50.403Z,-3.43
2023-03-19T05:07:17.488Z,-3.30
2023-03-19T05:09:46.345Z,-3.20
2023-03-19T05:12:14.675Z,-3.11
2023-03-19T05:14:46.560Z,-3.01
2023-03-19T05:17:30.054Z,-2.91
2023-03-19T05:20:12.745Z,-2.79
2023-03-19T05:22:46.598Z,-2.72
2023-03-19T05:25:14.982Z,-2.51
2023-03-19T05:27:42.721Z,-2.39
2023-03-19T05:30:18.400Z,-2.25
2023-03-19T05:33:00.947Z,-2.08
2023-03-19T05:35:36.903Z,-1.90
2023-03-19T05:38:09.553Z,-1.72
2023-03-19T05:40:36.998Z,-1.53
2023-03-19T05:43:18.111Z,-1.41
2023-03-19T05:45:50.885Z,-1.29
2023-03-19T05:48:21.252Z,-1.17
2023-03-19T05:50:48.474Z,-1.10
2023-03-19T05:53:20.861Z,-0.94
2023-03-19T05:56:05.066Z,-0.97
2023-03-19T05:58:39.712Z,-0.98
2023-03-19T06:01:07.251Z,-0.91
2023-03-19T06:03:34.265Z,-0.73
2023-03-19T06:06:05.888Z,-0.64
2023-03-19T06:08:40.932Z,-0.66
2023-03-19T06:11:21.407Z,-0.50
2023-03-19T06:13:57.195Z,-0.45
2023-03-19T06:16:24.322Z,-0.34
2023-03-19T06:18:52.821Z,-0.24
2023-03-19T06:21:20.007Z,-0.19
2023-03-19T06:23:46.886Z,-0.09
2023-03-19T06:26:18.330Z,0.02
2023-03-19T06:28:54.552Z,0.14
2023-03-19T06:31:22.044Z,0.19
2023-03-19T06:33:55.542Z,0.31
2023-03-19T06:36:26.226Z,0.50
2023-03-19T06:38:53.565Z,0.63
2023-03-19T06:41:21.412Z,0.71
2023-03-19T06:43:49.391Z,0.80
2023-03-19T06:46:16.446Z,0.95
2023-03-19T06:48:43.503Z,1.11
2023-03-19T06:51:10.734Z,1.32
2023-03-19T06:53:37.635Z,1.44
2023-03-19T06:56:04.729Z,1.46
2023-03-19T06:58:31.985Z,1.20
2023-03-19T07:00:59.994Z,1.33
2023-03-19T07:03:26.973Z,1.50
2023-03-19T07:05:54.023Z,1.59
2023-03-19T07:08:21.040Z,1.74
2023-03-19T07:10:48.084Z,1.76
2023-03-19T07:13:15.172Z,1.72
2023-03-19T07:15:42.177Z,1.77
2023-03-19T07:18:09.172Z,1.85
2023-03-19T07:20:36.602Z,1.99
2023-03-19T07:23:03.760Z,2.20
2023-03-19T07:25:30.775Z,2.20
2023-03-19T07:27:57.843Z,2.01
2023-03-19T07:30:24.864Z,2.17
2023-03-19T07:32:51.781Z,2.26
2023-03-19T07:35:18.763Z,2.29
2023-03-19T07:37:45.966Z,2.23
2023-03-19T07:40:13.147Z,2.23
2023-03-19T07:42:40.151Z,2.32
2023-03-19T07:45:07.678Z,2.36
2023-03-19T07:47:34.633Z,2.48
2023-03-19T07:50:01.798Z,2.54
2023-03-19T07:52:30.014Z,2.61
2023-03-19T07:54:57.221Z,2.49
2023-03-19T07:57:25.832Z,2.31
2023-03-19T07:59:52.862Z,2.17
2023-03-19T08:02:22.711Z,2.06
2023-03-19T08:04:50.111Z,2.13
2023-03-19T08:07:17.188Z,2.23
2023-03-19T08:09:44.314Z,2.25
2023-03-19T08:12:11.573Z,2.23
2023-03-19T08:14:38.567Z,2.20
2023-03-19T08:17:05.794Z,2.13
2023-03-19T08:19:32.794Z,2.03
2023-03-19T08:21:59.834Z,2.09
2023-03-19T08:24:26.730Z,2.32
2023-03-19T08:26:53.707Z,2.29
2023-03-19T08:29:21.016Z,2.23
2023-03-19T08:31:47.940Z,2.29
2023-03-19T08:34:15.383Z,2.45
2023-03-19T08:36:42.380Z,2.48
2023-03-19T08:39:09.533Z,2.44
2023-03-19T08:41:36.473Z,2.53
2023-03-19T08:44:03.713Z,2.51
2023-03-19T08:46:30.830Z,2.50
2023-03-19T08:48:57.905Z,2.55
2023-03-19T08:51:26.109Z,2.67
2023-03-19T08:53:53.394Z,2.54
2023-03-19T08:56:20.460Z,2.30
2023-03-19T08:58:47.425Z,2.48
2023-03-19T09:01:14.691Z,2.72
2023-03-19T09:03:42.739Z,2.88
2023-03-19T09:06:10.546Z,3.12
2023-03-19T09:08:37.933Z,3.29
2023-03-19T09:11:05.529Z,3.50
2023-03-19T09:13:32.567Z,3.67
2023-03-19T09:15:59.495Z,3.93
2023-03-19T09:18:26.613Z,4.05
2023-03-19T09:20:54.139Z,4.02
2023-03-19T09:23:21.725Z,3.99
2023-03-19T09:25:48.908Z,3.89
2023-03-19T09:28:16.197Z,3.90
2023-03-19T09:30:43.451Z,3.95
2023-03-19T09:33:10.670Z,4.02
2023-03-19T09:35:39.760Z,3.99
2023-03-19T09:38:07.024Z,4.08
2023-03-19T09:40:39.320Z,4.25
2023-03-19T09:43:43.727Z,4.34
2023-03-19T09:46:25.445Z,4.33
2023-03-19T09:48:59.982Z,4.32
2023-03-19T09:51:43.751Z,4.43
2023-03-19T09:54:23.219Z,4.41
2023-03-19T09:56:50.248Z,4.35
2023-03-19T09:59:17.383Z,4.33
2023-03-19T10:01:47.605Z,4.22
2023-03-19T10:04:32.838Z,4.33
2023-03-19T10:07:26.951Z,4.53
2023-03-19T10:09:56.872Z,4.46
2023-03-19T10:12:42.532Z,4.48
2023-03-19T10:15:41.794Z,4.53
2023-03-19T10:18:11.981Z,4.52
2023-03-19T10:20:48.007Z,4.54
2023-03-19T10:23:55.524Z,4.52
2023-03-19T10:26:26.586Z,4.53
2023-03-19T10:29:10.698Z,4.46
2023-03-19T10:31:40.865Z,4.43
2023-03-19T10:34:10.813Z,4.45
2023-03-19T10:36:37.807Z,4.49
2023-03-19T10:39:06.978Z,4.52
2023-03-19T10:41:33.825Z,4.48
2023-03-19T10:44:03.395Z,4.48
2023-03-19T10:46:39.906Z,4.45
2023-03-19T10:49:13.502Z,4.44
2023-03-19T10:51:43.281Z,4.50
2023-03-19T10:54:22.674Z,4.58
2023-03-19T10:56:50.039Z,4.72
2023-03-19T10:59:27.112Z,4.87
2023-03-19T11:02:03.660Z,4.89
2023-03-19T11:04:32.340Z,4.90
2023-03-19T11:07:03.863Z,4.93
2023-03-19T11:09:41.675Z,4.91
2023-03-19T11:12:23.187Z,4.89
2023-03-19T11:14:54.004Z,4.89
2023-03-19T11:17:28.043Z,5.02
2023-03-19T11:19:56.832Z,5.27
2023-03-19T11:22:34.193Z,5.26
2023-03-19T11:25:20.526Z,5.23
2023-03-19T11:28:09.768Z,5.20
2023-03-19T11:30:45.390Z,5.25
2023-03-19T11:33:38.503Z,5.44
2023-03-19T11:36:20.699Z,5.54
2023-03-19T11:39:17.144Z,5.63
2023-03-19T11:42:05.800Z,5.72
2023-03-19T11:44:56.900Z,5.78
2023-03-19T11:47:48.915Z,5.78
2023-03-19T11:50:22.362Z,5.82
2023-03-19T11:53:08.164Z,6.02
2023-03-19T11:56:02.342Z,6.06
2023-03-19T11:58:58.626Z,6.11
2023-03-19T12:01:49.197Z,6.24
2023-03-19T12:04:43.171Z,6.42
2023-03-19T12:07:15.983Z,6.45
2023-03-19T12:09:57.649Z,6.53
2023-03-19T12:12:34.820Z,6.65
2023-03-19T12:15:19.840Z,6.54
2023-03-19T12:18:08.583Z,6.45
2023-03-19T12:20:58.340Z,6.41
2023-03-19T12:23:41.097Z,6.43
2023-03-19T12:26:12.222Z,6.46
2023-03-19T12:28:51.801Z,6.56
2023-03-19T12:31:46.807Z,6.43
2023-03-19T12:34:26.018Z,6.35
2023-03-19T12:37:21.496Z,6.36
2023-03-19T12:40:20.684Z,6.46
2023-03-19T12:42:47.664Z,6.27
2023-03-19T12:45:33.232Z,6.16
2023-03-19T12:48:11.304Z,6.32
2023-03-19T12:50:39.940Z,6.51
2023-03-19T12:53:11.460Z,6.44
2023-03-19T12:55:45.116Z,6.26
2023-03-19T12:58:31.314Z,6.37
2023-03-19T13:01:15.787Z,6.40
2023-03-19T13:04:04.360Z,6.39
2023-03-19T13:06:34.726Z,6.29
2023-03-19T13:09:24.401Z,6.28
2023-03-19T13:11:51.296Z,6.32
2023-03-19T13:14:24.344Z,6.29
2023-03-19T13:17:12.522Z,6.32
2023-03-19T13:19:47.497Z,6.38
2023-03-19T13:22:19.894Z,6.35
2023-03-19T13:24:46.882Z,6.28
2023-03-19T13:27:24.377Z,6.18
2023-03-19T13:30:09.911Z,6.23
2023-03-19T13:32:49.871Z,6.25
2023-03-19T13:35:37.472Z,6.40
2023-03-19T13:38:26.259Z,6.35
2023-03-19T13:40:55.621Z,6.20
2023-03-19T13:43:29.565Z,6.14
2023-03-19T13:46:42.222Z,6.13
2023-03-19T13:49:36.410Z,6.12
2023-03-19T13:52:15.696Z,6.00
2023-03-19T13:54:46.053Z,5.83
2023-03-19T13:57:18.302Z,5.70
2023-03-19T13:59:47.378Z,5.48
2023-03-19T14:02:32.864Z,5.34
2023-03-19T14:05:07.424Z,5.18
2023-03-19T14:07:38.713Z,5.08
2023-03-19T14:10:28.266Z,4.97
2023-03-19T14:13:09.049Z,4.80
2023-03-19T14:15:38.420Z,4.68
2023-03-19T14:18:13.865Z,4.51
2023-03-19T14:20:53.973Z,4.41
2023-03-19T14:23:37.665Z,4.34
2023-03-19T14:26:26.227Z,4.20
2023-03-19T14:29:02.717Z,4.13
2023-03-19T14:31:53.607Z,4.05
2023-03-19T14:34:25.868Z,3.95
2023-03-19T14:37:04.546Z,3.80
2023-03-19T14:39:33.323Z,3.72
2023-03-19T14:42:19.861Z,3.59
2023-03-19T14:45:08.579Z,3.44
2023-03-19T14:47:47.571Z,3.44
2023-03-19T14:50:42.327Z,3.40
2023-03-19T14:53:38.299Z,3.37
2023-03-19T14:56:30.878Z,3.32
2023-03-19T14:58:58.348Z,3.27
2023-03-19T15:01:28.690Z,3.21
2023-03-19T15:04:09.364Z,3.16
2023-03-19T15:06:40.935Z,3.06
2023-03-19T15:09:21.042Z,2.91
2023-03-19T15:12:06.448Z,2.84
2023-03-19T15:14:39.469Z,2.83
2023-03-19T15:17:20.776Z,2.79
2023-03-19T15:19:47.768Z,2.71
2023-03-19T15:22:16.856Z,2.64
2023-03-19T15:24:43.853Z,2.53
2023-03-19T15:27:21.235Z,2.40
2023-03-19T15:29:50.377Z,2.28
2023-03-19T15:33:04.425Z,2.16
2023-03-19T15:35:36.189Z,2.12
2023-03-19T15:38:07.785Z,2.09
2023-03-19T15:40:34.927Z,2.05
2023-03-19T15:43:05.027Z,1.93
2023-03-19T15:45:34.138Z,1.88
2023-03-19T15:48:07.751Z,1.81
2023-03-19T15:50:36.831Z,1.68
2023-03-19T15:53:07.217Z,1.65
2023-03-19T15:55:36.371Z,1.64
2023-03-19T15:58:07.134Z,1.59
2023-03-19T16:00:40.230Z,1.52
2023-03-19T16:03:07.748Z,1.43
2023-03-19T16:05:34.941Z,1.35
2023-03-19T16:08:08.695Z,1.27
2023-03-19T16:10:42.674Z,1.16
2023-03-19T16:13:43.717Z,0.97
2023-03-19T16:16:10.681Z,0.78
2023-03-19T16:18:50.586Z,0.64
2023-03-19T16:21:27.569Z,0.60
2023-03-19T16:23:59.062Z,0.54
2023-03-19T16:26:29.580Z,0.47
2023-03-19T16:29:22.702Z,0.37
2023-03-19T16:32:02.869Z,0.25
2023-03-19T16:34:46.578Z,0.19
2023-03-19T16:37:38.514Z,0.13
2023-03-19T16:40:17.531Z,0.10
2023-03-19T16:42:56.592Z,0.10
2023-03-19T16:45:27.340Z,0.13
2023-03-19T16:47:58.654Z,0.07
2023-03-19T16:50:29.784Z,-0.03
2023-03-19T16:52:56.768Z,-0.16
2023-03-19T16:55:26.096Z,-0.23
2023-03-19T16:57:56.772Z,-0.31
2023-03-19T17:00:24.701Z,-0.36
2023-03-19T17:02:58.122Z,-0.38
2023-03-19T17:05:26.238Z,-0.46
2023-03-19T17:07:55.809Z,-0.55
2023-03-19T17:10:27.464Z,-0.61
2023-03-19T17:12:54.805Z,-0.66
2023-03-19T17:15:27.288Z,-0.65
2023-03-19T17:17:54.522Z,-0.70
2023-03-19T17:20:34.321Z,-0.74
2023-03-19T17:23:01.625Z,-0.77
2023-03-19T17:25:29.082Z,-0.76
2023-03-19T17:27:56.043Z,-0.64
2023-03-19T17:30:22.995Z,-0.58
2023-03-19T17:32:51.115Z,-0.56
2023-03-19T17:35:19.458Z,-0.52
2023-03-19T17:37:46.664Z,-0.51
2023-03-19T17:40:25.137Z,-0.48
2023-03-19T17:42:52.512Z,-0.47
2023-03-19T17:45:27.848Z,-0.54
2023-03-19T17:47:56.786Z,-0.63
2023-03-19T17:50:28.770Z,-0.73
2023-03-19T17:52:56.067Z,-0.70
2023-03-19T17:55:24.656Z,-0.66
2023-03-19T17:57:51.637Z,-0.74
2023-03-19T18:00:22.905Z,-0.65
2023-03-19T18:02:51.385Z,-0.60
2023-03-19T18:05:23.516Z,-0.55
2023-03-19T18:07:51.336Z,-0.63
2023-03-19T18:10:20.080Z,-0.75
2023-03-19T18:12:47.641Z,-0.82
2023-03-19T18:15:14.811Z,-0.86
2023-03-19T18:17:42.760Z,-0.89
2023-03-19T18:20:15.743Z,-0.82
2023-03-19T18:22:42.748Z,-0.85
2023-03-19T18:25:17.412Z,-0.84
2023-03-19T18:27:44.491Z,-0.77
2023-03-19T18:30:16.567Z,-0.88
2023-03-19T18:32:45.820Z,-0.93
2023-03-19T18:35:21.366Z,-0.94
2023-03-19T18:37:49.833Z,-0.96
2023-03-19T18:40:22.582Z,-0.94
2023-03-19T18:42:49.730Z,-0.98
2023-03-19T18:45:17.444Z,-0.98
2023-03-19T18:47:45.119Z,-0.88
2023-03-19T18:50:20.328Z,-0.86
2023-03-19T18:52:48.870Z,-0.87
2023-03-19T18:55:15.928Z,-0.91
2023-03-19T18:57:52.855Z,-0.99
2023-03-19T19:00:26.320Z,-1.07
2023-03-19T19:02:53.567Z,-1.08
2023-03-19T19:05:27.724Z,-1.10
2023-03-19T19:07:56.621Z,-1.16
2023-03-19T19:10:24.484Z,-1.19
2023-03-19T19:12:52.588Z,-1.19
2023-03-19T19:15:29.992Z,-1.15
2023-03-19T19:17:57.798Z,-1.15
2023-03-19T19:20:26.594Z,-1.23
2023-03-19T19:22:53.704Z,-1.32
2023-03-19T19:25:29.724Z,-1.43
2023-03-19T19:28:11.484Z,-1.46
2023-03-19T19:30:39.097Z,-1.43
2023-03-19T19:33:15.866Z,-1.37
2023-03-19T19:35:42.948Z,-1.36
2023-03-19T19:38:09.879Z,-1.24
2023-03-19T19:40:37.134Z,-1.14
2023-03-19T19:43:04.325Z,-0.98
2023-03-19T19:45:37.758Z,-0.94
2023-03-19T19:48:07.123Z,-1.14
2023-03-19T19:50:34.374Z,-1.27
2023-03-19T19:53:01.594Z,-1.36
2023-03-19T19:55:28.584Z,-1.34
2023-03-19T19:57:56.115Z,-1.32
2023-03-19T20:00:28.622Z,-1.30
2023-03-19T20:02:56.332Z,-1.36
2023-03-19T20:05:24.988Z,-1.45
2023-03-19T20:07:52.782Z,-1.45
2023-03-19T20:10:20.603Z,-1.33
2023-03-19T20:12:49.275Z,-1.38
2023-03-19T20:15:21.741Z,-1.53
2023-03-19T20:17:48.826Z,-1.69
2023-03-19T20:20:17.838Z,-1.80
2023-03-19T20:22:45.782Z,-1.87
2023-03-19T20:25:13.306Z,-1.94
2023-03-19T20:27:40.473Z,-2.03
2023-03-19T20:30:09.102Z,-1.98
2023-03-19T20:32:37.635Z,-1.98
2023-03-19T20:35:05.473Z,-1.97
2023-03-19T20:37:32.366Z,-1.93
2023-03-19T20:39:59.436Z,-1.96
2023-03-19T20:42:26.514Z,-1.96
2023-03-19T20:44:55.932Z,-2.04
2023-03-19T20:47:22.986Z,-2.12
2023-03-19T20:49:50.189Z,-2.18
2023-03-19T20:52:17.143Z,-2.06
2023-03-19T20:54:44.761Z,-1.90
2023-03-19T20:57:16.718Z,-1.77
2023-03-19T20:59:45.899Z,-1.65
2023-03-19T21:02:17.250Z,-1.64
2023-03-19T21:04:47.736Z,-1.71
2023-03-19T21:07:33.616Z,-1.75
2023-03-19T21:10:01.333Z,-1.69
2023-03-19T21:12:29.892Z,-1.57
2023-03-19T21:15:00.373Z,-1.60
2023-03-19T21:17:28.711Z,-1.65
2023-03-19T21:19:56.763Z,-1.64
2023-03-19T21:22:28.592Z,-1.62
2023-03-19T21:25:06.898Z,-1.60
2023-03-19T21:27:34.561Z,-1.69
2023-03-19T21:30:01.500Z,-1.68
2023-03-19T21:32:29.419Z,-1.68
2023-03-19T21:34:56.419Z,-1.74
2023-03-19T21:37:23.449Z,-1.84
2023-03-19T21:39:50.805Z,-1.86
2023-03-19T21:42:19.248Z,-1.88
2023-03-19T21:44:46.658Z,-1.93
2023-03-19T21:47:14.076Z,-2.07
2023-03-19T21:49:41.328Z,-2.26
2023-03-19T21:52:12.677Z,-2.47
2023-03-19T21:54:40.528Z,-2.61
2023-03-19T21:57:13.541Z,-2.64
2023-03-19T21:59:40.891Z,-2.62
2023-03-19T22:02:36.792Z,-2.48
2023-03-19T22:05:16.690Z,-2.57
2023-03-19T22:07:43.860Z,-2.56
2023-03-19T22:10:10.977Z,-2.65
2023-03-19T22:12:39.590Z,-2.76
2023-03-19T22:15:07.777Z,-2.73
2023-03-19T22:17:35.001Z,-2.60
2023-03-19T22:20:01.997Z,-2.40
2023-03-19T22:22:29.729Z,-2.40
2023-03-19T22:24:59.393Z,-2.49
2023-03-19T22:27:26.402Z,-2.56
2023-03-19T22:29:53.337Z,-2.48
2023-03-19T22:32:20.506Z,-2.32
2023-03-19T22:34:47.633Z,-2.20
2023-03-19T22:37:30.644Z,-2.09
2023-03-19T22:39:57.656Z,-2.11
2023-03-19T22:42:24.878Z,-2.03
2023-03-19T22:44:51.902Z,-1.99
2023-03-19T22:47:20.213Z,-2.07
2023-03-19T22:49:47.300Z,-2.27
2023-03-19T22:52:14.294Z,-2.45
2023-03-19T22:54:41.788Z,-2.48
2023-03-19T22:57:11.683Z,-2.49
2023-03-19T22:59:38.596Z,-2.49
2023-03-19T23:02:05.672Z,-2.53
2023-03-19T23:04:33.036Z,-2.67
2023-03-19T23:07:00.510Z,-2.65
2023-03-19T23:09:32.288Z,-2.59
2023-03-19T23:11:59.707Z,-2.52
2023-03-19T23:14:30.852Z,-2.45
2023-03-19T23:17:03.606Z,-2.49
2023-03-19T23:19:35.045Z,-2.42
2023-03-19T23:22:04.981Z,-2.15
2023-03-19T23:24:32.432Z,-2.02
2023-03-19T23:27:00.254Z,-1.85
2023-03-19T23:29:32.616Z,-1.79
2023-03-19T23:31:59.815Z,-1.87
2023-03-19T23:34:26.986Z,-1.96
2023-03-19T23:36:54.001Z,-1.91
2023-03-19T23:39:21.250Z,-1.74
2023-03-19T23:41:49.889Z,-1.74
2023-03-19T23:44:18.408Z,-1.87
2023-03-19T23:46:46.108Z,-2.02
2023-03-19T23:49:14.125Z,-2.04
2023-03-19T23:51:42.105Z,-2.11
2023-03-19T23:54:38.820Z,-2.18
2023-03-19T23:57:07.152Z,-2.19
2023-03-19T23:59:38.425Z,-2.01
